Decoded Metar for LFKF (FIGARI in CORSE ISL.) (IATA:FSC) | Meteo·Mobile Aviation Weather
aviador You're here:

LFKF Decoded Metar

FIGARI in CORSE ISL.
Report Time2018-10-18 16:00:00
UTC Time2018-10-18 16:19:17
Flight Rules vfr VFR
Wind060° at 14 kt
W.Decomp.*RWY 05: 13.8 kt HW 2.2 kt RCW
W.Rank060° ranks 1
Current wind is above 060° avg. (8.5)
Visibility9999 m
Phenomena:N/A
Clouds:N/A
Expected CloudBase > 1,600 ft AGL from Temp-Dew spread
CeilingNone
Temp21°C (ISA +6)
Dew Point17°C (78% RH)
AAT18.3°C
QNH1010 hPa
Density Alt1,152 ft
Elevation75 ft
Report Wrong Elevation
Raw Report
LFKF 181600Z AUTO 06014KT 040V100 CAVOK 21/17 Q1010 TEMPO
07015G25KT=

Extra information for LFKF:More info

Metar Taf Metar & Taf Last 4 Metars F.Rules Stats Wind Profile Meteogram Temp Stats Airport Information Weather charts Add Link Nearby VenuesMetar ALERT Operation Metar Decoded Social comments